sensor_id;sensor_type;location;lat;lon;timestamp;P1;durP1;ratioP1;P2;durP2;ratioP2
59474;SDS011;45288;51.136;16.928;2023-05-01T00:01:22;894.27;;;832.33;;
59474;SDS011;45288;51.136;16.928;2023-05-01T00:03:48;910.90;;;837.63;;
59474;SDS011;45288;51.136;16.928;2023-05-01T00:06:14;905.33;;;840.92;;
59474;SDS011;45288;51.136;16.928;2023-05-01T00:08:39;901.85;;;836.83;;
59474;SDS011;45288;51.136;16.928;2023-05-01T00:11:05;908.73;;;831.23;;
59474;SDS011;45288;51.136;16.928;2023-05-01T00:13:34;900.70;;;831.42;;
59474;SDS011;45288;51.136;16.928;2023-05-01T00:16:00;903.50;;;839.03;;
59474;SDS011;45288;51.136;16.928;2023-05-01T00:18:25;906.30;;;837.80;;
59474;SDS011;45288;51.136;16.928;2023-05-01T00:20:51;901.25;;;833.30;;
59474;SDS011;45288;51.136;16.928;2023-05-01T00:23:16;907.40;;;830.67;;
59474;SDS011;45288;51.136;16.928;2023-05-01T00:25:42;902.20;;;825.33;;
59474;SDS011;45288;51.136;16.928;2023-05-01T00:28:08;901.17;;;829.67;;
59474;SDS011;45288;51.136;16.928;2023-05-01T00:30:34;904.55;;;834.00;;
59474;SDS011;45288;51.136;16.928;2023-05-01T00:32:59;901.93;;;834.37;;
59474;SDS011;45288;51.136;16.928;2023-05-01T00:35:26;899.08;;;833.83;;
59474;SDS011;45288;51.136;16.928;2023-05-01T00:37:52;916.75;;;836.00;;
59474;SDS011;45288;51.136;16.928;2023-05-01T00:40:17;906.13;;;836.43;;
59474;SDS011;45288;51.136;16.928;2023-05-01T00:42:43;923.30;;;849.38;;
59474;SDS011;45288;51.136;16.928;2023-05-01T00:45:09;922.80;;;848.60;;
59474;SDS011;45288;51.136;16.928;2023-05-01T00:47:35;912.83;;;842.00;;
59474;SDS011;45288;51.136;16.928;2023-05-01T00:50:01;912.37;;;848.53;;
59474;SDS011;45288;51.136;16.928;2023-05-01T00:52:27;908.58;;;836.70;;
59474;SDS011;45288;51.136;16.928;2023-05-01T00:54:53;890.43;;;821.73;;
59474;SDS011;45288;51.136;16.928;2023-05-01T00:57:19;895.23;;;825.13;;
59474;SDS011;45288;51.136;16.928;2023-05-01T00:59:45;892.28;;;813.35;;
59474;SDS011;45288;51.136;16.928;2023-05-01T01:02:11;904.17;;;827.67;;
59474;SDS011;45288;51.136;16.928;2023-05-01T01:04:39;895.20;;;824.80;;
59474;SDS011;45288;51.136;16.928;2023-05-01T01:07:28;897.40;;;818.70;;
59474;SDS011;45288;51.136;16.928;2023-05-01T01:12:29;883.78;;;805.13;;
59474;SDS011;45288;51.136;16.928;2023-05-01T01:17:37;881.50;;;800.15;;
59474;SDS011;45288;51.136;16.928;2023-05-01T01:20:13;886.83;;;807.13;;
59474;SDS011;45288;51.136;16.928;2023-05-01T01:22:45;877.78;;;802.67;;
59474;SDS011;45288;51.136;16.928;2023-05-01T01:35:32;882.23;;;807.87;;
59474;SDS011;45288;51.136;16.928;2023-05-01T01:38:02;867.05;;;798.35;;
59474;SDS011;45288;51.136;16.928;2023-05-01T01:40:38;878.97;;;796.97;;
59474;SDS011;45288;51.136;16.928;2023-05-01T01:43:07;883.28;;;808.65;;
59474;SDS011;45288;51.136;16.928;2023-05-01T01:45:42;880.78;;;808.55;;
59474;SDS011;45288;51.136;16.928;2023-05-01T01:48:08;868.15;;;796.92;;
59474;SDS011;45288;51.136;16.928;2023-05-01T01:50:36;860.05;;;785.47;;
59474;SDS011;45288;51.136;16.928;2023-05-01T01:53:03;877.78;;;803.08;;
59474;SDS011;45288;51.136;16.928;2023-05-01T01:55:30;858.42;;;781.22;;
59474;SDS011;45288;51.136;16.928;2023-05-01T01:57:57;861.10;;;787.15;;
59474;SDS011;45288;51.136;16.928;2023-05-01T02:00:24;866.17;;;784.42;;
59474;SDS011;45288;51.136;16.928;2023-05-01T02:02:49;868.13;;;797.13;;
59474;SDS011;45288;51.136;16.928;2023-05-01T02:05:16;860.45;;;783.20;;
59474;SDS011;45288;51.136;16.928;2023-05-01T02:07:44;870.72;;;795.92;;
59474;SDS011;45288;51.136;16.928;2023-05-01T02:10:11;861.78;;;783.85;;
59474;SDS011;45288;51.136;16.928;2023-05-01T02:12:38;870.90;;;794.55;;
59474;SDS011;45288;51.136;16.928;2023-05-01T02:15:05;857.90;;;780.60;;
59474;SDS011;45288;51.136;16.928;2023-05-01T02:17:31;867.30;;;785.03;;
59474;SDS011;45288;51.136;16.928;2023-05-01T02:19:57;852.33;;;775.88;;
59474;SDS011;45288;51.136;16.928;2023-05-01T02:22:23;864.13;;;794.33;;
59474;SDS011;45288;51.136;16.928;2023-05-01T02:24:50;856.67;;;785.88;;
59474;SDS011;45288;51.136;16.928;2023-05-01T02:27:21;822.42;;;766.55;;
59474;SDS011;45288;51.136;16.928;2023-05-01T02:29:47;852.30;;;783.30;;
59474;SDS011;45288;51.136;16.928;2023-05-01T02:32:13;840.78;;;777.67;;
59474;SDS011;45288;51.136;16.928;2023-05-01T02:34:39;854.40;;;789.67;;
59474;SDS011;45288;51.136;16.928;2023-05-01T02:37:05;835.72;;;776.25;;
59474;SDS011;45288;51.136;16.928;2023-05-01T02:39:31;839.53;;;769.08;;
59474;SDS011;45288;51.136;16.928;2023-05-01T02:41:57;856.05;;;786.85;;
59474;SDS011;45288;51.136;16.928;2023-05-01T02:44:25;829.95;;;765.15;;
59474;SDS011;45288;51.136;16.928;2023-05-01T02:46:52;842.60;;;775.67;;
59474;SDS011;45288;51.136;16.928;2023-05-01T02:49:19;848.78;;;782.83;;
59474;SDS011;45288;51.136;16.928;2023-05-01T02:51:45;848.75;;;774.50;;
59474;SDS011;45288;51.136;16.928;2023-05-01T02:54:12;840.67;;;772.40;;
59474;SDS011;45288;51.136;16.928;2023-05-01T02:56:38;833.65;;;757.97;;
59474;SDS011;45288;51.136;16.928;2023-05-01T02:59:04;824.03;;;749.78;;
59474;SDS011;45288;51.136;16.928;2023-05-01T03:01:29;831.93;;;764.03;;
59474;SDS011;45288;51.136;16.928;2023-05-01T03:03:55;826.97;;;747.63;;
59474;SDS011;45288;51.136;16.928;2023-05-01T03:06:21;840.13;;;763.15;;
59474;SDS011;45288;51.136;16.928;2023-05-01T03:08:46;830.00;;;750.60;;
59474;SDS011;45288;51.136;16.928;2023-05-01T03:11:12;824.20;;;761.77;;
59474;SDS011;45288;51.136;16.928;2023-05-01T03:13:38;831.42;;;762.40;;
59474;SDS011;45288;51.136;16.928;2023-05-01T03:16:04;822.97;;;755.37;;
59474;SDS011;45288;51.136;16.928;2023-05-01T03:18:30;825.20;;;757.53;;
59474;SDS011;45288;51.136;16.928;2023-05-01T03:20:56;830.35;;;755.53;;
59474;SDS011;45288;51.136;16.928;2023-05-01T03:23:23;826.37;;;764.77;;
59474;SDS011;45288;51.136;16.928;2023-05-01T03:25:49;815.70;;;749.80;;
59474;SDS011;45288;51.136;16.928;2023-05-01T03:28:15;811.20;;;752.22;;
59474;SDS011;45288;51.136;16.928;2023-05-01T03:30:41;796.55;;;737.88;;
59474;SDS011;45288;51.136;16.928;2023-05-01T03:33:06;804.67;;;740.42;;
59474;SDS011;45288;51.136;16.928;2023-05-01T03:35:32;775.60;;;722.10;;
59474;SDS011;45288;51.136;16.928;2023-05-01T03:37:58;810.43;;;749.90;;
59474;SDS011;45288;51.136;16.928;2023-05-01T03:40:42;804.92;;;734.88;;
59474;SDS011;45288;51.136;16.928;2023-05-01T03:43:34;772.90;;;720.05;;
59474;SDS011;45288;51.136;16.928;2023-05-01T03:46:05;789.35;;;735.47;;
59474;SDS011;45288;51.136;16.928;2023-05-01T03:48:31;791.72;;;736.25;;
59474;SDS011;45288;51.136;16.928;2023-05-01T03:50:56;807.47;;;746.40;;
59474;SDS011;45288;51.136;16.928;2023-05-01T03:53:23;801.40;;;737.97;;
59474;SDS011;45288;51.136;16.928;2023-05-01T03:55:49;772.47;;;719.30;;
59474;SDS011;45288;51.136;16.928;2023-05-01T03:58:14;744.50;;;693.97;;
59474;SDS011;45288;51.136;16.928;2023-05-01T04:00:40;753.55;;;703.13;;
59474;SDS011;45288;51.136;16.928;2023-05-01T04:03:08;784.45;;;730.17;;
59474;SDS011;45288;51.136;16.928;2023-05-01T04:05:37;793.47;;;735.55;;
59474;SDS011;45288;51.136;16.928;2023-05-01T04:08:02;796.60;;;738.08;;
59474;SDS011;45288;51.136;16.928;2023-05-01T04:10:28;807.45;;;747.90;;
59474;SDS011;45288;51.136;16.928;2023-05-01T04:13:00;800.90;;;741.47;;
59474;SDS011;45288;51.136;16.928;2023-05-01T04:15:25;807.35;;;747.53;;
59474;SDS011;45288;51.136;16.928;2023-05-01T04:17:52;813.45;;;752.95;;
59474;SDS011;45288;51.136;16.928;2023-05-01T04:20:20;818.28;;;761.08;;
59474;SDS011;45288;51.136;16.928;2023-05-01T04:22:46;810.65;;;754.90;;
59474;SDS011;45288;51.136;16.928;2023-05-01T04:25:12;817.43;;;759.80;;
59474;SDS011;45288;51.136;16.928;2023-05-01T04:27:38;820.78;;;764.55;;
59474;SDS011;45288;51.136;16.928;2023-05-01T04:30:04;809.42;;;754.17;;
59474;SDS011;45288;51.136;16.928;2023-05-01T04:32:30;802.85;;;747.67;;
59474;SDS011;45288;51.136;16.928;2023-05-01T04:34:56;822.72;;;767.08;;
59474;SDS011;45288;51.136;16.928;2023-05-01T04:37:22;813.13;;;757.42;;
59474;SDS011;45288;51.136;16.928;2023-05-01T04:39:48;816.13;;;761.13;;
59474;SDS011;45288;51.136;16.928;2023-05-01T04:42:13;820.75;;;763.90;;
59474;SDS011;45288;51.136;16.928;2023-05-01T04:44:39;842.17;;;776.03;;
59474;SDS011;45288;51.136;16.928;2023-05-01T04:47:05;828.00;;;769.45;;
59474;SDS011;45288;51.136;16.928;2023-05-01T04:49:31;819.47;;;762.93;;
59474;SDS011;45288;51.136;16.928;2023-05-01T04:51:57;820.03;;;764.67;;
59474;SDS011;45288;51.136;16.928;2023-05-01T04:54:28;823.45;;;766.65;;
59474;SDS011;45288;51.136;16.928;2023-05-01T04:56:55;836.13;;;779.67;;
59474;SDS011;45288;51.136;16.928;2023-05-01T04:59:21;852.87;;;784.63;;
59474;SDS011;45288;51.136;16.928;2023-05-01T05:01:47;838.17;;;774.47;;
59474;SDS011;45288;51.136;16.928;2023-05-01T05:04:12;841.97;;;781.80;;
59474;SDS011;45288;51.136;16.928;2023-05-01T05:06:38;854.43;;;793.83;;
59474;SDS011;45288;51.136;16.928;2023-05-01T05:09:07;852.22;;;793.45;;
59474;SDS011;45288;51.136;16.928;2023-05-01T05:11:34;847.80;;;785.22;;
59474;SDS011;45288;51.136;16.928;2023-05-01T05:14:03;830.87;;;773.63;;
59474;SDS011;45288;51.136;16.928;2023-05-01T05:16:28;822.08;;;765.15;;
59474;SDS011;45288;51.136;16.928;2023-05-01T05:18:55;850.72;;;791.53;;
59474;SDS011;45288;51.136;16.928;2023-05-01T05:21:23;855.63;;;796.53;;
59474;SDS011;45288;51.136;16.928;2023-05-01T05:23:52;878.77;;;813.60;;
59474;SDS011;45288;51.136;16.928;2023-05-01T05:26:18;884.60;;;813.23;;
59474;SDS011;45288;51.136;16.928;2023-05-01T05:28:43;792.90;;;739.35;;
59474;SDS011;45288;51.136;16.928;2023-05-01T05:31:10;882.15;;;816.38;;
59474;SDS011;45288;51.136;16.928;2023-05-01T05:33:36;884.22;;;822.92;;
59474;SDS011;45288;51.136;16.928;2023-05-01T05:36:02;898.53;;;826.85;;
59474;SDS011;45288;51.136;16.928;2023-05-01T05:38:33;901.65;;;834.40;;
59474;SDS011;45288;51.136;16.928;2023-05-01T05:41:01;905.33;;;837.78;;
59474;SDS011;45288;51.136;16.928;2023-05-01T05:43:28;909.90;;;838.90;;
59474;SDS011;45288;51.136;16.928;2023-05-01T05:45:56;908.00;;;831.97;;
59474;SDS011;45288;51.136;16.928;2023-05-01T05:48:23;919.88;;;853.45;;
59474;SDS011;45288;51.136;16.928;2023-05-01T05:50:49;917.25;;;850.53;;
59474;SDS011;45288;51.136;16.928;2023-05-01T05:53:19;927.88;;;857.92;;
59474;SDS011;45288;51.136;16.928;2023-05-01T05:55:46;919.72;;;854.95;;
59474;SDS011;45288;51.136;16.928;2023-05-01T05:58:11;909.45;;;838.05;;
59474;SDS011;45288;51.136;16.928;2023-05-01T06:00:39;919.73;;;843.70;;
59474;SDS011;45288;51.136;16.928;2023-05-01T06:03:07;891.85;;;830.17;;
59474;SDS011;45288;51.136;16.928;2023-05-01T06:05:34;925.30;;;859.67;;
59474;SDS011;45288;51.136;16.928;2023-05-01T06:08:00;932.53;;;859.43;;
59474;SDS011;45288;51.136;16.928;2023-05-01T06:10:26;940.45;;;866.38;;
59474;SDS011;45288;51.136;16.928;2023-05-01T06:12:51;944.67;;;867.37;;
59474;SDS011;45288;51.136;16.928;2023-05-01T06:15:17;947.60;;;882.08;;
59474;SDS011;45288;51.136;16.928;2023-05-01T06:17:50;958.90;;;890.00;;
59474;SDS011;45288;51.136;16.928;2023-05-01T06:20:15;973.90;;;905.60;;
59474;SDS011;45288;51.136;16.928;2023-05-01T06:22:41;944.45;;;861.90;;
59474;SDS011;45288;51.136;16.928;2023-05-01T06:25:28;967.90;;;897.53;;
59474;SDS011;45288;51.136;16.928;2023-05-01T06:27:54;977.60;;;893.10;;
59474;SDS011;45288;51.136;16.928;2023-05-01T06:30:21;979.15;;;894.85;;
59474;SDS011;45288;51.136;16.928;2023-05-01T06:32:47;991.45;;;906.67;;
59474;SDS011;45288;51.136;16.928;2023-05-01T06:35:15;998.92;;;911.92;;
59474;SDS011;45288;51.136;16.928;2023-05-01T06:37:40;1005.95;;;923.42;;
59474;SDS011;45288;51.136;16.928;2023-05-01T06:40:07;1020.78;;;936.20;;
59474;SDS011;45288;51.136;16.928;2023-05-01T06:42:35;1016.00;;;931.93;;
59474;SDS011;45288;51.136;16.928;2023-05-01T06:45:01;1009.58;;;924.47;;
59474;SDS011;45288;51.136;16.928;2023-05-01T06:47:28;1014.00;;;931.53;;
59474;SDS011;45288;51.136;16.928;2023-05-01T06:49:54;1009.92;;;923.53;;
59474;SDS011;45288;51.136;16.928;2023-05-01T06:52:20;1008.17;;;925.10;;
59474;SDS011;45288;51.136;16.928;2023-05-01T06:54:45;1016.53;;;930.13;;
59474;SDS011;45288;51.136;16.928;2023-05-01T06:57:11;1032.32;;;947.80;;
59474;SDS011;45288;51.136;16.928;2023-05-01T06:59:37;1028.27;;;945.50;;
59474;SDS011;45288;51.136;16.928;2023-05-01T07:02:03;1027.55;;;942.58;;
59474;SDS011;45288;51.136;16.928;2023-05-01T07:04:30;1022.25;;;939.20;;
59474;SDS011;45288;51.136;16.928;2023-05-01T07:06:56;1021.25;;;948.75;;
59474;SDS011;45288;51.136;16.928;2023-05-01T07:09:21;1039.00;;;964.73;;
59474;SDS011;45288;51.136;16.928;2023-05-01T07:11:47;997.00;;;930.40;;
59474;SDS011;45288;51.136;16.928;2023-05-01T07:14:12;1021.00;;;951.03;;
59474;SDS011;45288;51.136;16.928;2023-05-01T07:16:38;1026.82;;;957.03;;
59474;SDS011;45288;51.136;16.928;2023-05-01T07:19:04;1051.07;;;974.30;;
59474;SDS011;45288;51.136;16.928;2023-05-01T07:21:30;1055.18;;;971.90;;
59474;SDS011;45288;51.136;16.928;2023-05-01T07:23:56;1047.93;;;961.53;;
59474;SDS011;45288;51.136;16.928;2023-05-01T07:26:23;1049.50;;;975.03;;
59474;SDS011;45288;51.136;16.928;2023-05-01T07:28:50;1049.03;;;972.65;;
59474;SDS011;45288;51.136;16.928;2023-05-01T07:31:16;1064.65;;;985.50;;
59474;SDS011;45288;51.136;16.928;2023-05-01T07:33:41;1056.13;;;969.70;;
59474;SDS011;45288;51.136;16.928;2023-05-01T07:36:07;1059.93;;;979.13;;
59474;SDS011;45288;51.136;16.928;2023-05-01T07:38:33;1069.90;;;984.63;;
59474;SDS011;45288;51.136;16.928;2023-05-01T07:40:59;1068.13;;;988.50;;
59474;SDS011;45288;51.136;16.928;2023-05-01T07:43:25;1073.72;;;994.65;;
59474;SDS011;45288;51.136;16.928;2023-05-01T07:45:57;1072.72;;;993.75;;
59474;SDS011;45288;51.136;16.928;2023-05-01T07:48:23;1079.00;;;991.72;;
59474;SDS011;45288;51.136;16.928;2023-05-01T07:50:49;1083.53;;;993.72;;
59474;SDS011;45288;51.136;16.928;2023-05-01T07:53:14;1085.88;;;994.45;;
59474;SDS011;45288;51.136;16.928;2023-05-01T07:55:40;1087.33;;;999.33;;
59474;SDS011;45288;51.136;16.928;2023-05-01T07:58:06;1079.15;;;989.03;;
59474;SDS011;45288;51.136;16.928;2023-05-01T08:00:31;1051.40;;;979.57;;
59474;SDS011;45288;51.136;16.928;2023-05-01T08:02:57;1090.18;;;999.90;;
59474;SDS011;45288;51.136;16.928;2023-05-01T08:05:23;1084.07;;;999.90;;
59474;SDS011;45288;51.136;16.928;2023-05-01T08:07:49;1087.38;;;999.90;;
59474;SDS011;45288;51.136;16.928;2023-05-01T08:10:15;1093.78;;;999.90;;
59474;SDS011;45288;51.136;16.928;2023-05-01T08:12:40;1082.20;;;999.90;;
59474;SDS011;45288;51.136;16.928;2023-05-01T08:15:07;1086.72;;;999.90;;
59474;SDS011;45288;51.136;16.928;2023-05-01T08:17:34;1090.80;;;999.90;;
59474;SDS011;45288;51.136;16.928;2023-05-01T08:19:59;1089.15;;;999.90;;
59474;SDS011;45288;51.136;16.928;2023-05-01T08:22:25;1097.27;;;999.90;;
59474;SDS011;45288;51.136;16.928;2023-05-01T08:24:51;1094.65;;;999.90;;
59474;SDS011;45288;51.136;16.928;2023-05-01T08:27:16;1100.63;;;999.90;;
59474;SDS011;45288;51.136;16.928;2023-05-01T08:29:42;1094.03;;;999.90;;
59474;SDS011;45288;51.136;16.928;2023-05-01T08:32:08;1096.13;;;999.90;;
59474;SDS011;45288;51.136;16.928;2023-05-01T08:34:33;1098.00;;;999.90;;
59474;SDS011;45288;51.136;16.928;2023-05-01T08:37:00;1098.65;;;999.90;;
59474;SDS011;45288;51.136;16.928;2023-05-01T08:39:26;1103.05;;;999.90;;
59474;SDS011;45288;51.136;16.928;2023-05-01T08:41:52;1062.20;;;988.97;;
59474;SDS011;45288;51.136;16.928;2023-05-01T08:44:21;1020.63;;;949.85;;
59474;SDS011;45288;51.136;16.928;2023-05-01T08:46:49;1033.13;;;961.67;;
59474;SDS011;45288;51.136;16.928;2023-05-01T08:49:17;1107.43;;;999.90;;
59474;SDS011;45288;51.136;16.928;2023-05-01T08:51:44;1083.55;;;999.90;;
59474;SDS011;45288;51.136;16.928;2023-05-01T08:54:11;1104.50;;;999.90;;
59474;SDS011;45288;51.136;16.928;2023-05-01T08:56:38;1019.25;;;948.45;;
59474;SDS011;45288;51.136;16.928;2023-05-01T08:59:03;1037.85;;;966.10;;
59474;SDS011;45288;51.136;16.928;2023-05-01T09:01:30;1105.57;;;999.90;;
59474;SDS011;45288;51.136;16.928;2023-05-01T09:04:00;1110.13;;;999.90;;
59474;SDS011;45288;51.136;16.928;2023-05-01T09:06:27;1119.13;;;999.90;;
59474;SDS011;45288;51.136;16.928;2023-05-01T09:08:53;1053.57;;;980.35;;
59474;SDS011;45288;51.136;16.928;2023-05-01T09:11:20;1115.15;;;999.90;;
59474;SDS011;45288;51.136;16.928;2023-05-01T09:13:47;964.38;;;896.90;;
59474;SDS011;45288;51.136;16.928;2023-05-01T09:16:12;631.08;;;584.03;;
59474;SDS011;45288;51.136;16.928;2023-05-01T09:18:38;576.37;;;533.47;;
59474;SDS011;45288;51.136;16.928;2023-05-01T09:21:05;554.05;;;512.92;;
59474;SDS011;45288;51.136;16.928;2023-05-01T09:23:31;545.75;;;504.25;;
59474;SDS011;45288;51.136;16.928;2023-05-01T09:25:57;566.30;;;523.92;;
59474;SDS011;45288;51.136;16.928;2023-05-01T09:28:43;548.35;;;506.17;;
59474;SDS011;45288;51.136;16.928;2023-05-01T09:31:42;559.15;;;516.78;;
59474;SDS011;45288;51.136;16.928;2023-05-01T09:34:02;563.10;;;520.95;;
59474;SDS011;45288;51.136;16.928;2023-05-01T09:36:32;584.40;;;539.83;;
59474;SDS011;45288;51.136;16.928;2023-05-01T09:38:58;610.07;;;564.53;;
59474;SDS011;45288;51.136;16.928;2023-05-01T09:41:24;609.72;;;562.47;;
59474;SDS011;45288;51.136;16.928;2023-05-01T09:43:51;628.37;;;580.53;;
59474;SDS011;45288;51.136;16.928;2023-05-01T09:46:17;682.00;;;629.42;;
59474;SDS011;45288;51.136;16.928;2023-05-01T09:51:20;839.15;;;776.30;;
59474;SDS011;45288;51.136;16.928;2023-05-01T09:53:46;825.67;;;763.97;;
59474;SDS011;45288;51.136;16.928;2023-05-01T09:56:12;812.78;;;751.92;;
59474;SDS011;45288;51.136;16.928;2023-05-01T09:58:39;1022.35;;;948.55;;
59474;SDS011;45288;51.136;16.928;2023-05-01T10:01:05;681.37;;;629.47;;
59474;SDS011;45288;51.136;16.928;2023-05-01T10:03:32;778.83;;;718.70;;
59474;SDS011;45288;51.136;16.928;2023-05-01T10:05:58;1141.65;;;999.90;;
59474;SDS011;45288;51.136;16.928;2023-05-01T10:08:26;1107.05;;;999.90;;
59474;SDS011;45288;51.136;16.928;2023-05-01T10:10:58;1031.32;;;956.28;;
59474;SDS011;45288;51.136;16.928;2023-05-01T10:13:24;802.50;;;741.63;;
59474;SDS011;45288;51.136;16.928;2023-05-01T10:15:50;945.80;;;876.60;;
59474;SDS011;45288;51.136;16.928;2023-05-01T10:18:15;1161.80;;;999.90;;
59474;SDS011;45288;51.136;16.928;2023-05-01T10:20:41;1152.18;;;999.90;;
59474;SDS011;45288;51.136;16.928;2023-05-01T10:23:07;907.10;;;840.22;;
59474;SDS011;45288;51.136;16.928;2023-05-01T10:25:33;1048.30;;;972.45;;
59474;SDS011;45288;51.136;16.928;2023-05-01T10:28:01;721.03;;;666.10;;
59474;SDS011;45288;51.136;16.928;2023-05-01T10:30:28;575.58;;;531.13;;
59474;SDS011;45288;51.136;16.928;2023-05-01T10:32:54;597.50;;;551.95;;
59474;SDS011;45288;51.136;16.928;2023-05-01T10:35:20;598.80;;;552.90;;
59474;SDS011;45288;51.136;16.928;2023-05-01T10:37:50;589.37;;;544.53;;
59474;SDS011;45288;51.136;16.928;2023-05-01T10:45:46;1054.65;;;978.25;;
59474;SDS011;45288;51.136;16.928;2023-05-01T10:48:12;884.78;;;818.53;;
59474;SDS011;45288;51.136;16.928;2023-05-01T10:51:07;1096.87;;;999.90;;
59474;SDS011;45288;51.136;16.928;2023-05-01T10:53:34;1069.07;;;990.75;;
59474;SDS011;45288;51.136;16.928;2023-05-01T10:55:59;1162.87;;;999.90;;
59474;SDS011;45288;51.136;16.928;2023-05-01T10:59:07;1177.57;;;999.90;;
59474;SDS011;45288;51.136;16.928;2023-05-01T11:01:37;1168.83;;;999.90;;
59474;SDS011;45288;51.136;16.928;2023-05-01T11:06:33;1184.05;;;999.90;;
59474;SDS011;45288;51.136;16.928;2023-05-01T11:08:59;1183.53;;;999.90;;
59474;SDS011;45288;51.136;16.928;2023-05-01T11:14:00;1186.60;;;999.90;;
59474;SDS011;45288;51.136;16.928;2023-05-01T11:19:42;1189.13;;;999.90;;
59474;SDS011;45288;51.136;16.928;2023-05-01T11:21:57;1193.88;;;999.90;;
59474;SDS011;45288;51.136;16.928;2023-05-01T11:24:32;1200.80;;;999.90;;
59474;SDS011;45288;51.136;16.928;2023-05-01T11:26:58;1194.85;;;999.90;;
59474;SDS011;45288;51.136;16.928;2023-05-01T11:29:30;1202.40;;;999.90;;
59474;SDS011;45288;51.136;16.928;2023-05-01T11:31:59;1195.32;;;999.90;;
59474;SDS011;45288;51.136;16.928;2023-05-01T11:34:25;1173.88;;;999.90;;
59474;SDS011;45288;51.136;16.928;2023-05-01T11:36:51;1150.63;;;999.90;;
59474;SDS011;45288;51.136;16.928;2023-05-01T11:39:17;1114.35;;;999.90;;
59474;SDS011;45288;51.136;16.928;2023-05-01T11:41:44;1099.53;;;999.90;;
59474;SDS011;45288;51.136;16.928;2023-05-01T11:44:16;1094.78;;;999.90;;
59474;SDS011;45288;51.136;16.928;2023-05-01T11:46:41;1125.88;;;999.90;;
59474;SDS011;45288;51.136;16.928;2023-05-01T11:49:07;1209.57;;;999.90;;
59474;SDS011;45288;51.136;16.928;2023-05-01T11:51:34;1208.23;;;999.90;;
59474;SDS011;45288;51.136;16.928;2023-05-01T11:54:09;1201.30;;;999.90;;
59474;SDS011;45288;51.136;16.928;2023-05-01T11:56:36;1212.47;;;999.90;;
59474;SDS011;45288;51.136;16.928;2023-05-01T11:59:09;1210.28;;;999.90;;
59474;SDS011;45288;51.136;16.928;2023-05-01T12:01:37;1207.05;;;999.90;;
59474;SDS011;45288;51.136;16.928;2023-05-01T12:04:03;1209.10;;;999.90;;
59474;SDS011;45288;51.136;16.928;2023-05-01T12:06:39;1207.45;;;999.90;;
59474;SDS011;45288;51.136;16.928;2023-05-01T12:11:39;1204.03;;;999.90;;
59474;SDS011;45288;51.136;16.928;2023-05-01T12:14:05;1204.03;;;999.90;;
59474;SDS011;45288;51.136;16.928;2023-05-01T12:16:31;1200.43;;;999.90;;
59474;SDS011;45288;51.136;16.928;2023-05-01T12:18:58;1195.45;;;999.90;;
59474;SDS011;45288;51.136;16.928;2023-05-01T12:21:24;1209.50;;;999.90;;
59474;SDS011;45288;51.136;16.928;2023-05-01T12:23:50;1196.80;;;999.90;;
59474;SDS011;45288;51.136;16.928;2023-05-01T12:28:55;1136.10;;;999.90;;
59474;SDS011;45288;51.136;16.928;2023-05-01T12:31:20;1149.85;;;999.90;;
59474;SDS011;45288;51.136;16.928;2023-05-01T12:33:56;1127.80;;;999.90;;
59474;SDS011;45288;51.136;16.928;2023-05-01T12:36:23;1155.37;;;999.90;;
59474;SDS011;45288;51.136;16.928;2023-05-01T12:39:10;1166.15;;;999.90;;
59474;SDS011;45288;51.136;16.928;2023-05-01T12:46:53;1078.03;;;997.55;;
59474;SDS011;45288;51.136;16.928;2023-05-01T12:49:18;1219.50;;;999.90;;
59474;SDS011;45288;51.136;16.928;2023-05-01T12:51:54;1225.45;;;999.90;;
59474;SDS011;45288;51.136;16.928;2023-05-01T12:56:46;1226.75;;;999.90;;
59474;SDS011;45288;51.136;16.928;2023-05-01T12:59:21;1210.95;;;999.90;;
59474;SDS011;45288;51.136;16.928;2023-05-01T13:01:47;1139.63;;;999.90;;
59474;SDS011;45288;51.136;16.928;2023-05-01T13:04:20;1113.78;;;999.90;;
59474;SDS011;45288;51.136;16.928;2023-05-01T13:06:45;1169.13;;;999.90;;
59474;SDS011;45288;51.136;16.928;2023-05-01T13:09:11;1211.90;;;999.90;;
59474;SDS011;45288;51.136;16.928;2023-05-01T13:11:37;1216.25;;;999.90;;
59474;SDS011;45288;51.136;16.928;2023-05-01T13:14:06;1205.03;;;999.90;;
59474;SDS011;45288;51.136;16.928;2023-05-01T13:16:33;1235.68;;;999.90;;
59474;SDS011;45288;51.136;16.928;2023-05-01T13:18:59;1172.03;;;999.90;;
59474;SDS011;45288;51.136;16.928;2023-05-01T13:21:25;1194.73;;;999.90;;
59474;SDS011;45288;51.136;16.928;2023-05-01T13:23:52;1235.72;;;999.90;;
59474;SDS011;45288;51.136;16.928;2023-05-01T13:26:22;1230.57;;;999.90;;
59474;SDS011;45288;51.136;16.928;2023-05-01T13:28:49;1224.20;;;999.90;;
59474;SDS011;45288;51.136;16.928;2023-05-01T13:31:14;1231.82;;;999.90;;
59474;SDS011;45288;51.136;16.928;2023-05-01T13:33:40;1215.40;;;999.90;;
59474;SDS011;45288;51.136;16.928;2023-05-01T13:36:07;1158.05;;;999.90;;
59474;SDS011;45288;51.136;16.928;2023-05-01T13:38:33;1188.57;;;999.90;;
59474;SDS011;45288;51.136;16.928;2023-05-01T13:41:05;1228.72;;;999.90;;
59474;SDS011;45288;51.136;16.928;2023-05-01T13:43:30;1224.10;;;999.90;;
59474;SDS011;45288;51.136;16.928;2023-05-01T13:45:56;1224.75;;;999.90;;
59474;SDS011;45288;51.136;16.928;2023-05-01T13:48:22;954.33;;;880.20;;
59474;SDS011;45288;51.136;16.928;2023-05-01T13:50:48;877.50;;;808.55;;
59474;SDS011;45288;51.136;16.928;2023-05-01T13:53:13;833.30;;;767.38;;
59474;SDS011;45288;51.136;16.928;2023-05-01T13:55:39;829.08;;;763.20;;
59474;SDS011;45288;51.136;16.928;2023-05-01T13:58:05;812.25;;;748.25;;
59474;SDS011;45288;51.136;16.928;2023-05-01T14:00:32;816.85;;;752.20;;
59474;SDS011;45288;51.136;16.928;2023-05-01T14:02:57;791.92;;;728.20;;
59474;SDS011;45288;51.136;16.928;2023-05-01T14:05:25;772.13;;;710.25;;
59474;SDS011;45288;51.136;16.928;2023-05-01T14:07:53;743.25;;;683.55;;
59474;SDS011;45288;51.136;16.928;2023-05-01T14:10:19;720.97;;;662.35;;
59474;SDS011;45288;51.136;16.928;2023-05-01T14:12:46;718.45;;;660.38;;
59474;SDS011;45288;51.136;16.928;2023-05-01T14:15:11;702.33;;;645.50;;
59474;SDS011;45288;51.136;16.928;2023-05-01T14:17:37;763.65;;;702.15;;
59474;SDS011;45288;51.136;16.928;2023-05-01T14:20:06;795.93;;;732.43;;
59474;SDS011;45288;51.136;16.928;2023-05-01T14:25:18;735.95;;;676.55;;
59474;SDS011;45288;51.136;16.928;2023-05-01T14:27:44;735.53;;;675.65;;